sensor_id;sensor_type;location;lat;lon;timestamp;pressure;altitude;pressure_sealevel;temperature;humidity
75026;BME280;63591;50.080;8.286;2022-11-25T00:01:28;99585.41;;;13.84;58.09
75026;BME280;63591;50.080;8.286;2022-11-25T00:03:55;99586.41;;;13.83;58.21
75026;BME280;63591;50.080;8.286;2022-11-25T00:06:24;99583.78;;;13.83;58.30
75026;BME280;63591;50.080;8.286;2022-11-25T00:08:54;99581.13;;;13.83;58.18
75026;BME280;63591;50.080;8.286;2022-11-25T00:11:19;99584.41;;;13.85;58.31
75026;BME280;63591;50.080;8.286;2022-11-25T00:13:46;99586.25;;;13.85;58.25
75026;BME280;63591;50.080;8.286;2022-11-25T00:16:14;99578.31;;;13.85;58.30
75026;BME280;63591;50.080;8.286;2022-11-25T00:18:43;99570.41;;;13.85;58.40
75026;BME280;63591;50.080;8.286;2022-11-25T00:21:10;99573.84;;;13.85;58.52
75026;BME280;63591;50.080;8.286;2022-11-25T00:23:36;99575.50;;;13.86;58.38
75026;BME280;63591;50.080;8.286;2022-11-25T00:26:13;99574.84;;;13.84;58.46
75026;BME280;63591;50.080;8.286;2022-11-25T00:28:41;99577.16;;;13.87;58.59
75026;BME280;63591;50.080;8.286;2022-11-25T00:31:28;99577.50;;;13.84;58.45
75026;BME280;63591;50.080;8.286;2022-11-25T00:33:54;99579.78;;;13.87;58.41
75026;BME280;63591;50.080;8.286;2022-11-25T00:36:25;99569.41;;;13.86;58.59
75026;BME280;63591;50.080;8.286;2022-11-25T00:38:55;99567.59;;;13.86;58.35
75026;BME280;63591;50.080;8.286;2022-11-25T00:41:22;99559.69;;;13.86;58.55
75026;BME280;63591;50.080;8.286;2022-11-25T00:44:12;99560.50;;;13.87;58.54
75026;BME280;63591;50.080;8.286;2022-11-25T00:46:56;99559.50;;;13.88;58.59
75026;BME280;63591;50.080;8.286;2022-11-25T00:49:21;99562.31;;;13.86;58.88
75026;BME280;63591;50.080;8.286;2022-11-25T00:51:46;99571.03;;;13.87;58.67
75026;BME280;63591;50.080;8.286;2022-11-25T00:54:12;99561.50;;;13.86;58.79
75026;BME280;63591;50.080;8.286;2022-11-25T00:56:37;99562.31;;;13.86;58.92
75026;BME280;63591;50.080;8.286;2022-11-25T00:59:03;99549.13;;;13.86;58.95
75026;BME280;63591;50.080;8.286;2022-11-25T01:01:28;99558.84;;;13.86;59.02
75026;BME280;63591;50.080;8.286;2022-11-25T01:03:53;99559.69;;;13.86;59.02
75026;BME280;63591;50.080;8.286;2022-11-25T01:06:19;99559.69;;;13.86;59.06
75026;BME280;63591;50.080;8.286;2022-11-25T01:08:45;99562.31;;;13.86;59.16
75026;BME280;63591;50.080;8.286;2022-11-25T01:11:11;99563.13;;;13.87;59.16
75026;BME280;63591;50.080;8.286;2022-11-25T01:13:37;99558.69;;;13.87;59.17
75026;BME280;63591;50.080;8.286;2022-11-25T01:16:04;99557.84;;;13.87;59.00
75026;BME280;63591;50.080;8.286;2022-11-25T01:18:30;99551.78;;;13.86;59.47
75026;BME280;63591;50.080;8.286;2022-11-25T01:21:29;99570.56;;;13.83;59.30
75026;BME280;63591;50.080;8.286;2022-11-25T01:23:55;99569.06;;;13.89;59.44
75026;BME280;63591;50.080;8.286;2022-11-25T01:26:23;99577.97;;;13.88;59.13
75026;BME280;63591;50.080;8.286;2022-11-25T01:28:53;99569.22;;;13.87;59.08
75026;BME280;63591;50.080;8.286;2022-11-25T01:31:20;99563.97;;;13.87;59.46
75026;BME280;63591;50.080;8.286;2022-11-25T01:33:47;99566.59;;;13.87;59.30
75026;BME280;63591;50.080;8.286;2022-11-25T01:36:14;99568.41;;;13.87;59.50
75026;BME280;63591;50.080;8.286;2022-11-25T01:38:40;99581.41;;;13.88;59.37
75026;BME280;63591;50.080;8.286;2022-11-25T01:41:07;99573.50;;;13.88;59.36
75026;BME280;63591;50.080;8.286;2022-11-25T01:43:34;99572.88;;;13.86;59.41
75026;BME280;63591;50.080;8.286;2022-11-25T01:48:40;99567.59;;;13.86;59.32
75026;BME280;63591;50.080;8.286;2022-11-25T01:51:21;99573.03;;;13.85;59.40
75026;BME280;63591;50.080;8.286;2022-11-25T01:53:49;99566.59;;;13.87;59.58
75026;BME280;63591;50.080;8.286;2022-11-25T01:56:15;99570.88;;;13.88;59.44
75026;BME280;63591;50.080;8.286;2022-11-25T01:58:41;99572.72;;;13.88;59.54
75026;BME280;63591;50.080;8.286;2022-11-25T02:01:07;99564.78;;;13.88;59.32
75026;BME280;63591;50.080;8.286;2022-11-25T02:03:37;99565.75;;;13.87;59.25
75026;BME280;63591;50.080;8.286;2022-11-25T02:08:32;99557.84;;;13.87;59.23
75026;BME280;63591;50.080;8.286;2022-11-25T02:10:59;99556.03;;;13.87;59.44
75026;BME280;63591;50.080;8.286;2022-11-25T02:13:25;99555.22;;;13.87;59.24
75026;BME280;63591;50.080;8.286;2022-11-25T02:15:52;99551.78;;;13.86;59.22
75026;BME280;63591;50.080;8.286;2022-11-25T02:18:17;99551.78;;;13.86;59.34
75026;BME280;63591;50.080;8.286;2022-11-25T02:20:42;99546.50;;;13.86;59.22
75026;BME280;63591;50.080;8.286;2022-11-25T02:23:32;99550.28;;;13.84;59.12
75026;BME280;63591;50.080;8.286;2022-11-25T02:26:02;99549.94;;;13.87;59.00
75026;BME280;63591;50.080;8.286;2022-11-25T02:28:30;99553.56;;;13.86;58.89
75026;BME280;63591;50.080;8.286;2022-11-25T02:30:56;99555.38;;;13.85;58.88
75026;BME280;63591;50.080;8.286;2022-11-25T02:33:22;99551.09;;;13.84;58.91
75026;BME280;63591;50.080;8.286;2022-11-25T02:35:51;99552.91;;;13.84;58.92
75026;BME280;63591;50.080;8.286;2022-11-25T02:38:24;99552.91;;;13.84;58.90
75026;BME280;63591;50.080;8.286;2022-11-25T02:40:58;99553.75;;;13.84;58.94
75026;BME280;63591;50.080;8.286;2022-11-25T02:43:26;99555.56;;;13.84;58.71
75026;BME280;63591;50.080;8.286;2022-11-25T02:46:05;99550.44;;;13.82;58.75
75026;BME280;63591;50.080;8.286;2022-11-25T02:48:33;99553.09;;;13.82;58.78
75026;BME280;63591;50.080;8.286;2022-11-25T02:50:59;99556.72;;;13.81;58.46
75026;BME280;63591;50.080;8.286;2022-11-25T02:53:24;99559.38;;;13.81;58.68
75026;BME280;63591;50.080;8.286;2022-11-25T02:55:50;99556.91;;;13.80;58.42
75026;BME280;63591;50.080;8.286;2022-11-25T02:58:16;99559.53;;;13.80;58.20
75026;BME280;63591;50.080;8.286;2022-11-25T03:00:44;99557.72;;;13.80;58.36
75026;BME280;63591;50.080;8.286;2022-11-25T03:03:10;99563.84;;;13.81;58.20
75026;BME280;63591;50.080;8.286;2022-11-25T03:05:35;99558.72;;;13.79;58.14
75026;BME280;63591;50.080;8.286;2022-11-25T03:08:01;99553.28;;;13.81;58.24
75026;BME280;63591;50.080;8.286;2022-11-25T03:10:26;99557.72;;;13.80;58.39
75026;BME280;63591;50.080;8.286;2022-11-25T03:12:52;99565.66;;;13.80;58.06
75026;BME280;63591;50.080;8.286;2022-11-25T03:15:18;99562.00;;;13.81;58.22
75026;BME280;63591;50.080;8.286;2022-11-25T03:17:44;99559.38;;;13.81;58.21
75026;BME280;63591;50.080;8.286;2022-11-25T03:20:10;99554.09;;;13.81;58.02
75026;BME280;63591;50.080;8.286;2022-11-25T03:22:36;99555.72;;;13.82;58.24
75026;BME280;63591;50.080;8.286;2022-11-25T03:25:02;99557.56;;;13.82;58.08
75026;BME280;63591;50.080;8.286;2022-11-25T03:27:28;99556.72;;;13.81;58.23
75026;BME280;63591;50.080;8.286;2022-11-25T03:29:53;99553.09;;;13.82;58.38
75026;BME280;63591;50.080;8.286;2022-11-25T03:32:18;99553.91;;;13.83;58.09
75026;BME280;63591;50.080;8.286;2022-11-25T03:34:44;99554.75;;;13.83;58.09
75026;BME280;63591;50.080;8.286;2022-11-25T03:37:09;99552.13;;;13.83;57.85
75026;BME280;63591;50.080;8.286;2022-11-25T03:39:34;99553.91;;;13.83;58.12
75026;BME280;63591;50.080;8.286;2022-11-25T03:42:00;99553.91;;;13.83;58.08
75026;BME280;63591;50.080;8.286;2022-11-25T03:44:25;99552.13;;;13.83;58.06
75026;BME280;63591;50.080;8.286;2022-11-25T03:46:50;99555.56;;;13.84;58.03
75026;BME280;63591;50.080;8.286;2022-11-25T03:49:16;99552.13;;;13.83;58.28
75026;BME280;63591;50.080;8.286;2022-11-25T03:51:41;99550.28;;;13.84;58.12
75026;BME280;63591;50.080;8.286;2022-11-25T03:54:07;99552.91;;;13.84;58.18
75026;BME280;63591;50.080;8.286;2022-11-25T03:56:32;99555.56;;;13.84;58.10
75026;BME280;63591;50.080;8.286;2022-11-25T03:58:58;99558.19;;;13.84;58.16
75026;BME280;63591;50.080;8.286;2022-11-25T04:01:23;99553.75;;;13.84;58.10
75026;BME280;63591;50.080;8.286;2022-11-25T04:03:48;99551.09;;;13.84;58.33
75026;BME280;63591;50.080;8.286;2022-11-25T04:06:13;99562.50;;;13.85;58.06
75026;BME280;63591;50.080;8.286;2022-11-25T04:08:40;99557.38;;;13.83;58.21
75026;BME280;63591;50.080;8.286;2022-11-25T04:11:06;99567.94;;;13.83;58.20
75026;BME280;63591;50.080;8.286;2022-11-25T04:13:31;99572.38;;;13.83;58.10
75026;BME280;63591;50.080;8.286;2022-11-25T04:15:56;99573.38;;;13.82;58.42
75026;BME280;63591;50.080;8.286;2022-11-25T04:18:22;99572.56;;;13.81;58.30
75026;BME280;63591;50.080;8.286;2022-11-25T04:20:47;99574.19;;;13.82;58.20
75026;BME280;63591;50.080;8.286;2022-11-25T04:23:13;99564.63;;;13.81;58.19
75026;BME280;63591;50.080;8.286;2022-11-25T04:25:38;99568.91;;;13.82;58.39
75026;BME280;63591;50.080;8.286;2022-11-25T04:28:05;99572.38;;;13.83;58.45
75026;BME280;63591;50.080;8.286;2022-11-25T04:30:32;99566.28;;;13.82;58.24
75026;BME280;63591;50.080;8.286;2022-11-25T04:32:58;99560.03;;;13.83;58.22
75026;BME280;63591;50.080;8.286;2022-11-25T04:35:23;99551.28;;;13.83;58.37
75026;BME280;63591;50.080;8.286;2022-11-25T04:37:48;99557.38;;;13.83;58.34
75026;BME280;63591;50.080;8.286;2022-11-25T04:40:14;99560.81;;;13.84;58.45
75026;BME280;63591;50.080;8.286;2022-11-25T04:42:39;99556.38;;;13.84;58.21
75026;BME280;63591;50.080;8.286;2022-11-25T04:45:11;99553.28;;;13.81;58.05
75026;BME280;63591;50.080;8.286;2022-11-25T04:47:38;99545.16;;;13.82;58.36
75026;BME280;63591;50.080;8.286;2022-11-25T04:50:04;99546.19;;;13.81;58.29
75026;BME280;63591;50.080;8.286;2022-11-25T04:52:30;99544.53;;;13.80;58.38
75026;BME280;63591;50.080;8.286;2022-11-25T04:54:56;99549.97;;;13.79;58.32
75026;BME280;63591;50.080;8.286;2022-11-25T04:57:21;99548.19;;;13.79;58.16
75026;BME280;63591;50.080;8.286;2022-11-25T04:59:47;99545.72;;;13.77;58.09
75026;BME280;63591;50.080;8.286;2022-11-25T05:02:13;99546.69;;;13.76;57.86
75026;BME280;63591;50.080;8.286;2022-11-25T05:04:40;99548.53;;;13.76;58.01
75026;BME280;63591;50.080;8.286;2022-11-25T05:07:05;99542.41;;;13.75;58.20
75026;BME280;63591;50.080;8.286;2022-11-25T05:09:30;99545.06;;;13.75;58.24
75026;BME280;63591;50.080;8.286;2022-11-25T05:11:56;99544.22;;;13.75;57.86
75026;BME280;63591;50.080;8.286;2022-11-25T05:14:21;99539.13;;;13.73;57.86
75026;BME280;63591;50.080;8.286;2022-11-25T05:16:48;99551.31;;;13.74;57.87
75026;BME280;63591;50.080;8.286;2022-11-25T05:19:13;99546.06;;;13.74;57.85
75026;BME280;63591;50.080;8.286;2022-11-25T05:21:38;99549.31;;;13.76;58.02
75026;BME280;63591;50.080;8.286;2022-11-25T05:24:04;99547.34;;;13.79;57.96
75026;BME280;63591;50.080;8.286;2022-11-25T05:26:29;99547.19;;;13.80;58.07
75026;BME280;63591;50.080;8.286;2022-11-25T05:28:54;99548.81;;;13.81;58.08
75026;BME280;63591;50.080;8.286;2022-11-25T05:31:20;99545.16;;;13.82;58.06
75026;BME280;63591;50.080;8.286;2022-11-25T05:33:45;99545.84;;;13.84;58.19
75026;BME280;63591;50.080;8.286;2022-11-25T05:36:10;99552.75;;;13.85;58.40
75026;BME280;63591;50.080;8.286;2022-11-25T05:38:36;99553.56;;;13.86;58.50
75026;BME280;63591;50.080;8.286;2022-11-25T05:41:03;99552.75;;;13.85;58.46
75026;BME280;63591;50.080;8.286;2022-11-25T05:43:29;99550.94;;;13.86;58.17
75026;BME280;63591;50.080;8.286;2022-11-25T05:45:55;99550.09;;;13.85;58.34
75026;BME280;63591;50.080;8.286;2022-11-25T05:48:20;99552.75;;;13.85;58.28
75026;BME280;63591;50.080;8.286;2022-11-25T05:50:45;99566.94;;;13.84;58.53
75026;BME280;63591;50.080;8.286;2022-11-25T05:53:10;99566.94;;;13.84;58.14
75026;BME280;63591;50.080;8.286;2022-11-25T05:55:36;99562.50;;;13.85;58.44
75026;BME280;63591;50.080;8.286;2022-11-25T05:58:01;99561.66;;;13.84;58.49
75026;BME280;63591;50.080;8.286;2022-11-25T06:00:28;99571.22;;;13.85;58.38
75026;BME280;63591;50.080;8.286;2022-11-25T06:02:54;99575.50;;;13.86;58.40
75026;BME280;63591;50.080;8.286;2022-11-25T06:05:19;99584.41;;;13.85;58.58
75026;BME280;63591;50.080;8.286;2022-11-25T06:07:45;99586.88;;;13.87;58.32
75026;BME280;63591;50.080;8.286;2022-11-25T06:10:10;99584.41;;;13.85;58.60
75026;BME280;63591;50.080;8.286;2022-11-25T06:12:36;99579.97;;;13.86;58.60
75026;BME280;63591;50.080;8.286;2022-11-25T06:15:01;99572.03;;;13.86;58.48
75026;BME280;63591;50.080;8.286;2022-11-25T06:17:27;99576.50;;;13.85;58.49
75026;BME280;63591;50.080;8.286;2022-11-25T06:19:52;99583.59;;;13.85;58.30
75026;BME280;63591;50.080;8.286;2022-11-25T06:22:17;99587.03;;;13.85;58.57
75026;BME280;63591;50.080;8.286;2022-11-25T06:24:43;99593.16;;;13.86;58.47
75026;BME280;63591;50.080;8.286;2022-11-25T06:27:08;99596.63;;;13.86;58.37
75026;BME280;63591;50.080;8.286;2022-11-25T06:29:33;99607.00;;;13.88;58.29
75026;BME280;63591;50.080;8.286;2022-11-25T06:32:00;99608.81;;;13.87;58.38
75026;BME280;63591;50.080;8.286;2022-11-25T06:34:25;99607.97;;;13.87;58.57
75026;BME280;63591;50.080;8.286;2022-11-25T06:36:51;99606.16;;;13.87;58.74
75026;BME280;63591;50.080;8.286;2022-11-25T06:39:16;99597.44;;;13.87;58.59
75026;BME280;63591;50.080;8.286;2022-11-25T06:41:41;99603.53;;;13.87;58.48
75026;BME280;63591;50.080;8.286;2022-11-25T06:44:06;99603.53;;;13.87;58.49
75026;BME280;63591;50.080;8.286;2022-11-25T06:46:32;99609.81;;;13.86;58.45
75026;BME280;63591;50.080;8.286;2022-11-25T06:48:58;99622.16;;;13.86;58.33
75026;BME280;63591;50.080;8.286;2022-11-25T06:51:24;99626.63;;;13.85;58.96
75026;BME280;63591;50.080;8.286;2022-11-25T06:53:50;99620.38;;;13.86;58.64
75026;BME280;63591;50.080;8.286;2022-11-25T06:56:19;99618.69;;;13.85;58.41
75026;BME280;63591;50.080;8.286;2022-11-25T06:58:46;99616.06;;;13.85;58.33
75026;BME280;63591;50.080;8.286;2022-11-25T07:01:17;99608.31;;;13.84;58.33
75026;BME280;63591;50.080;8.286;2022-11-25T07:03:44;99622.50;;;13.83;58.37
75026;BME280;63591;50.080;8.286;2022-11-25T07:06:14;99624.69;;;13.79;58.57
75026;BME280;63591;50.080;8.286;2022-11-25T07:08:40;99624.84;;;13.77;58.33
75026;BME280;63591;50.080;8.286;2022-11-25T07:11:09;99630.13;;;13.77;58.55
75026;BME280;63591;50.080;8.286;2022-11-25T07:13:36;99628.28;;;13.78;58.23
75026;BME280;63591;50.080;8.286;2022-11-25T07:16:03;99616.75;;;13.79;58.42
75026;BME280;63591;50.080;8.286;2022-11-25T07:18:30;99622.84;;;13.80;58.52
75026;BME280;63591;50.080;8.286;2022-11-25T07:21:01;99632.59;;;13.79;58.54
75026;BME280;63591;50.080;8.286;2022-11-25T07:23:27;99641.97;;;13.82;58.61
75026;BME280;63591;50.080;8.286;2022-11-25T07:25:52;99641.13;;;13.81;58.34
75026;BME280;63591;50.080;8.286;2022-11-25T07:28:17;99642.78;;;13.82;58.46
75026;BME280;63591;50.080;8.286;2022-11-25T07:30:42;99638.34;;;13.83;58.26
75026;BME280;63591;50.080;8.286;2022-11-25T07:33:08;99645.41;;;13.82;58.51
75026;BME280;63591;50.080;8.286;2022-11-25T07:35:33;99647.09;;;13.83;58.45
75026;BME280;63591;50.080;8.286;2022-11-25T07:37:58;99643.63;;;13.83;58.53
75026;BME280;63591;50.080;8.286;2022-11-25T07:40:23;99643.63;;;13.83;58.54
75026;BME280;63591;50.080;8.286;2022-11-25T07:42:49;99645.25;;;13.84;58.71
75026;BME280;63591;50.080;8.286;2022-11-25T07:45:14;99646.09;;;13.84;58.56
75026;BME280;63591;50.080;8.286;2022-11-25T07:47:39;99645.25;;;13.84;58.41
75026;BME280;63591;50.080;8.286;2022-11-25T07:50:05;99650.53;;;13.84;58.59
75026;BME280;63591;50.080;8.286;2022-11-25T07:52:31;99649.56;;;13.85;58.75
75026;BME280;63591;50.080;8.286;2022-11-25T07:54:56;99653.00;;;13.85;58.76
75026;BME280;63591;50.080;8.286;2022-11-25T07:57:21;99648.72;;;13.84;58.99
75026;BME280;63591;50.080;8.286;2022-11-25T07:59:47;99653.00;;;13.85;58.60
75026;BME280;63591;50.080;8.286;2022-11-25T08:02:12;99654.00;;;13.84;59.08
75026;BME280;63591;50.080;8.286;2022-11-25T08:04:37;99660.09;;;13.85;58.59
75026;BME280;63591;50.080;8.286;2022-11-25T08:07:03;99654.84;;;13.85;58.59
75026;BME280;63591;50.080;8.286;2022-11-25T08:09:28;99661.91;;;13.84;58.79
75026;BME280;63591;50.080;8.286;2022-11-25T08:11:53;99667.19;;;13.84;58.75
75026;BME280;63591;50.080;8.286;2022-11-25T08:14:19;99670.81;;;13.83;58.71
75026;BME280;63591;50.080;8.286;2022-11-25T08:16:45;99659.44;;;13.83;58.79
75026;BME280;63591;50.080;8.286;2022-11-25T08:19:12;99665.56;;;13.83;58.78
75026;BME280;63591;50.080;8.286;2022-11-25T08:21:38;99658.59;;;13.82;59.03
75026;BME280;63591;50.080;8.286;2022-11-25T08:24:04;99665.56;;;13.83;58.89
75026;BME280;63591;50.080;8.286;2022-11-25T08:26:32;99666.53;;;13.82;58.87
75026;BME280;63591;50.080;8.286;2022-11-25T08:29:00;99673.47;;;13.83;58.78
75026;BME280;63591;50.080;8.286;2022-11-25T08:31:31;99674.28;;;13.84;58.88
75026;BME280;63591;50.080;8.286;2022-11-25T08:33:57;99676.09;;;13.83;58.96
75026;BME280;63591;50.080;8.286;2022-11-25T08:36:23;99679.53;;;13.84;59.13
75026;BME280;63591;50.080;8.286;2022-11-25T08:38:51;99679.72;;;13.82;58.91
75026;BME280;63591;50.080;8.286;2022-11-25T08:41:20;99686.66;;;13.83;58.95
75026;BME280;63591;50.080;8.286;2022-11-25T08:43:46;99690.25;;;13.82;59.01
75026;BME280;63591;50.080;8.286;2022-11-25T08:46:15;99692.91;;;13.82;59.11
75026;BME280;63591;50.080;8.286;2022-11-25T08:48:41;99690.94;;;13.84;59.32
75026;BME280;63591;50.080;8.286;2022-11-25T08:51:10;99697.22;;;13.83;59.08
75026;BME280;63591;50.080;8.286;2022-11-25T08:53:36;99699.69;;;13.85;59.10
75026;BME280;63591;50.080;8.286;2022-11-25T08:56:02;99698.84;;;13.84;59.23
75026;BME280;63591;50.080;8.286;2022-11-25T08:58:27;99704.97;;;13.85;59.08
75026;BME280;63591;50.080;8.286;2022-11-25T09:00:52;99704.97;;;13.85;59.27
75026;BME280;63591;50.080;8.286;2022-11-25T09:03:18;99696.22;;;13.84;59.38
75026;BME280;63591;50.080;8.286;2022-11-25T09:05:43;99706.75;;;13.84;59.57
75026;BME280;63591;50.080;8.286;2022-11-25T09:08:09;99704.97;;;13.85;59.43
75026;BME280;63591;50.080;8.286;2022-11-25T09:10:36;99713.69;;;13.85;59.63
75026;BME280;63591;50.080;8.286;2022-11-25T09:13:02;99712.03;;;13.84;59.73
75026;BME280;63591;50.080;8.286;2022-11-25T09:15:27;99714.50;;;13.86;59.69
75026;BME280;63591;50.080;8.286;2022-11-25T09:18:00;99719.13;;;13.84;59.56
75026;BME280;63591;50.080;8.286;2022-11-25T09:20:26;99720.63;;;13.86;59.56
75026;BME280;63591;50.080;8.286;2022-11-25T09:22:52;99722.44;;;13.86;59.69
75026;BME280;63591;50.080;8.286;2022-11-25T09:25:19;99726.88;;;13.85;59.91
75026;BME280;63591;50.080;8.286;2022-11-25T09:27:44;99725.41;;;13.83;59.61
75026;BME280;63591;50.080;8.286;2022-11-25T09:30:10;99731.69;;;13.82;59.77
75026;BME280;63591;50.080;8.286;2022-11-25T09:32:35;99733.63;;;13.80;59.81
75026;BME280;63591;50.080;8.286;2022-11-25T09:35:00;99731.16;;;13.78;59.77
75026;BME280;63591;50.080;8.286;2022-11-25T09:37:26;99726.56;;;13.80;59.80
75026;BME280;63591;50.080;8.286;2022-11-25T09:39:52;99731.84;;;13.80;59.62
75026;BME280;63591;50.080;8.286;2022-11-25T09:42:42;99748.84;;;13.77;59.76
75026;BME280;63591;50.080;8.286;2022-11-25T09:45:45;99737.94;;;13.81;59.49
75026;BME280;63591;50.080;8.286;2022-11-25T09:51:30;99755.25;;;13.83;59.63
75026;BME280;63591;50.080;8.286;2022-11-25T09:54:08;99746.66;;;13.81;59.71
75026;BME280;63591;50.080;8.286;2022-11-25T09:56:40;99749.97;;;13.83;59.77
75026;BME280;63591;50.080;8.286;2022-11-25T09:59:16;99754.59;;;13.81;60.12
75026;BME280;63591;50.080;8.286;2022-11-25T10:01:55;99758.84;;;13.82;59.83
75026;BME280;63591;50.080;8.286;2022-11-25T10:04:29;99762.34;;;13.83;59.72
75026;BME280;63591;50.080;8.286;2022-11-25T10:06:58;99762.16;;;13.84;59.72
75026;BME280;63591;50.080;8.286;2022-11-25T10:09:29;99772.72;;;13.84;60.03
75026;BME280;63591;50.080;8.286;2022-11-25T10:12:02;99763.00;;;13.85;60.01
75026;BME280;63591;50.080;8.286;2022-11-25T10:14:48;99765.47;;;13.86;59.62
75026;BME280;63591;50.080;8.286;2022-11-25T10:17:21;99763.81;;;13.85;59.72
75026;BME280;63591;50.080;8.286;2022-11-25T10:20:04;99764.81;;;13.84;59.77
75026;BME280;63591;50.080;8.286;2022-11-25T10:22:35;99768.28;;;13.85;59.60
75026;BME280;63591;50.080;8.286;2022-11-25T10:25:27;99782.59;;;13.82;59.74
75026;BME280;63591;50.080;8.286;2022-11-25T10:28:01;99788.38;;;13.86;59.84
75026;BME280;63591;50.080;8.286;2022-11-25T10:31:03;99784.28;;;13.83;60.07
75026;BME280;63591;50.080;8.286;2022-11-25T10:33:35;99776.84;;;13.87;60.06
75026;BME280;63591;50.080;8.286;2022-11-25T10:38:58;99779.47;;;13.87;60.19
75026;BME280;63591;50.080;8.286;2022-11-25T10:41:27;99779.31;;;13.88;60.21
75026;BME280;63591;50.080;8.286;2022-11-25T10:43:54;99771.38;;;13.88;60.30
75026;BME280;63591;50.080;8.286;2022-11-25T10:46:23;99774.03;;;13.88;60.35
75026;BME280;63591;50.080;8.286;2022-11-25T10:48:54;99767.13;;;13.87;59.98
75026;BME280;63591;50.080;8.286;2022-11-25T10:54:12;99784.59;;;13.88;60.68
75026;BME280;63591;50.080;8.286;2022-11-25T10:56:55;99785.09;;;13.92;60.28
75026;BME280;63591;50.080;8.286;2022-11-25T10:59:24;99789.38;;;13.93;60.81
75026;BME280;63591;50.080;8.286;2022-11-25T11:01:51;99798.13;;;13.94;60.72
75026;BME280;63591;50.080;8.286;2022-11-25T11:04:17;99804.19;;;13.94;61.00
75026;BME280;63591;50.080;8.286;2022-11-25T11:06:46;99802.56;;;13.93;60.87
75026;BME280;63591;50.080;8.286;2022-11-25T11:09:37;99801.91;;;13.91;61.04
75026;BME280;63591;50.080;8.286;2022-11-25T11:12:17;99801.75;;;13.93;61.13
75026;BME280;63591;50.080;8.286;2022-11-25T11:14:43;99802.41;;;13.95;61.04
75026;BME280;63591;50.080;8.286;2022-11-25T11:17:31;99809.66;;;13.93;60.99
75026;BME280;63591;50.080;8.286;2022-11-25T11:20:15;99807.03;;;13.93;61.07
75026;BME280;63591;50.080;8.286;2022-11-25T11:22:49;99808.50;;;13.95;61.14
75026;BME280;63591;50.080;8.286;2022-11-25T11:27:44;99793.47;;;13.96;61.25
75026;BME280;63591;50.080;8.286;2022-11-25T11:32:42;99798.13;;;13.94;61.44
75026;BME280;63591;50.080;8.286;2022-11-25T11:37:46;99811.94;;;13.96;61.53
75026;BME280;63591;50.080;8.286;2022-11-25T11:48:38;99828.13;;;14.01;61.16
75026;BME280;63591;50.080;8.286;2022-11-25T11:51:45;99823.16;;;13.98;61.53
75026;BME280;63591;50.080;8.286;2022-11-25T11:57:10;99831.94;;;13.98;61.66
75026;BME280;63591;50.080;8.286;2022-11-25T11:59:54;99837.19;;;13.98;61.39
75026;BME280;63591;50.080;8.286;2022-11-25T12:05:04;99842.47;;;13.98;61.29
75026;BME280;63591;50.080;8.286;2022-11-25T12:13:49;99848.41;;;14.00;61.64
75026;BME280;63591;50.080;8.286;2022-11-25T12:19:39;99858.00;;;14.01;61.48
75026;BME280;63591;50.080;8.286;2022-11-25T12:22:10;99851.53;;;14.04;61.40
75026;BME280;63591;50.080;8.286;2022-11-25T12:27:46;99856.16;;;14.02;61.52
75026;BME280;63591;50.080;8.286;2022-11-25T12:30:19;99860.28;;;14.05;61.61
75026;BME280;63591;50.080;8.286;2022-11-25T12:32:55;99857.81;;;14.03;61.71
75026;BME280;63591;50.080;8.286;2022-11-25T12:35:27;99856.81;;;14.04;61.82
75026;BME280;63591;50.080;8.286;2022-11-25T12:38:08;99860.28;;;14.05;61.43
75026;BME280;63591;50.080;8.286;2022-11-25T12:40:41;99858.47;;;14.05;61.73
75026;BME280;63591;50.080;8.286;2022-11-25T12:43:27;99861.09;;;14.05;61.44
75026;BME280;63591;50.080;8.286;2022-11-25T12:49:06;99858.28;;;14.07;61.94
75026;BME280;63591;50.080;8.286;2022-11-25T12:59:56;99877.59;;;14.07;61.86
75026;BME280;63591;50.080;8.286;2022-11-25T13:13:40;99885.38;;;14.09;61.97
75026;BME280;63591;50.080;8.286;2022-11-25T13:16:10;99885.50;;;14.15;62.10
75026;BME280;63591;50.080;8.286;2022-11-25T13:18:39;99893.44;;;14.15;61.95
75026;BME280;63591;50.080;8.286;2022-11-25T13:21:07;99901.34;;;14.15;61.84
75026;BME280;63591;50.080;8.286;2022-11-25T13:23:47;99898.06;;;14.13;61.91
75026;BME280;63591;50.080;8.286;2022-11-25T13:28:53;99897.91;;;14.15;62.09
75026;BME280;63591;50.080;8.286;2022-11-25T13:31:30;99903.34;;;14.13;62.02
75026;BME280;63591;50.080;8.286;2022-11-25T13:34:06;99900.72;;;14.13;62.30
75026;BME280;63591;50.080;8.286;2022-11-25T13:36:50;99912.41;;;14.11;62.13
75026;BME280;63591;50.080;8.286;2022-11-25T13:39:17;99913.06;;;14.13;61.96
75026;BME280;63591;50.080;8.286;2022-11-25T13:42:09;99924.63;;;14.12;62.12
75026;BME280;63591;50.080;8.286;2022-11-25T13:54:48;99948.38;;;14.12;62.15
75026;BME280;63591;50.080;8.286;2022-11-25T13:57:27;99942.94;;;14.13;61.73
75026;BME280;63591;50.080;8.286;2022-11-25T13:59:58;99946.38;;;14.14;62.17
75026;BME280;63591;50.080;8.286;2022-11-25T14:07:28;99950.03;;;14.13;62.23
75026;BME280;63591;50.080;8.286;2022-11-25T14:16:02;99949.03;;;14.14;61.88
75026;BME280;63591;50.080;8.286;2022-11-25T14:18:53;99949.88;;;14.14;61.96
75026;BME280;63591;50.080;8.286;2022-11-25T14:24:41;99955.31;;;14.13;62.23
75026;BME280;63591;50.080;8.286;2022-11-25T14:27:17;99958.78;;;14.13;61.87
75026;BME280;63591;50.080;8.286;2022-11-25T14:30:06;99963.38;;;14.11;62.22
75026;BME280;63591;50.080;8.286;2022-11-25T14:32:38;99972.78;;;14.14;62.20
75026;BME280;63591;50.080;8.286;2022-11-25T14:35:10;99977.25;;;14.13;62.01
75026;BME280;63591;50.080;8.286;2022-11-25T14:37:46;99977.25;;;14.13;62.00
75026;BME280;63591;50.080;8.286;2022-11-25T14:43:25;99972.78;;;14.14;62.20
75026;BME280;63591;50.080;8.286;2022-11-25T14:46:19;99977.56;;;14.10;62.25
75026;BME280;63591;50.080;8.286;2022-11-25T14:49:01;99982.53;;;14.13;62.22
75026;BME280;63591;50.080;8.286;2022-11-25T14:51:34;99980.88;;;14.12;62.21